当前位置: 首页>>视频区 >>KWE-006磁力链 play海 量资源 国自产拍在线

KWE-006磁力链 play海 量资源 国自产拍在线

添加时间:    

百花繚乱 ~ハードマ○コ&アナルフィストレズビアン~ 美咲結衣&加納綾子
kwese这里是关于KWE锌合金母头的产品大全、价格大全页面,众多KWE锌合金母头的商机信息尽在1024商务网!
kwe是什么公司2017年8月25日 - 作品KWE-006发行于2017-08-25,该片演员是(美咲結衣 加納綾子 ) 时长192分钟,出品商是個性派Director’s,KWE-006作品种子下载,KWE-006作品百度云网盘下载
006在线互动式文档分享平台,在这里,您可以和千万网友分享自己手中的文档,全文阅读其他用户的文档,同时,也
scp0062018年8月17日 - KWE-007 一度射精しても止めない強制的に連続射精に導く痴女 若菜奈央订正 识别码: KWE-007 发行日期:
kwe物流KingCamp男款竹炭圆领T恤KWE107 59.00 6折 99.00 已售153件 全场包邮 商品详情 商品参数 评价(26) 本商品
kwe是哪个国家2018年6月29日 - KWE-004 共找到:9652 时间:0s 时间文件名大小文件个数分类状态BUHD-006 83.CESD-476 84.ZRO-059 85.PGD-416 86.SATO-001 87.DOKS-
kwe是哪个机场保暖 KWE528/KWE529 男黑灰色 L 布特户外 秋装LI-NING/李宁 2016新款女装户外系列开身抓绒衣AENL006深花灰M
kween楼主[原创]KWE旁边的二堡村 2008-ZUGY 310700Z 01001MPS 3500-DZ BR SCT006 BKN016 OVC033 17/17 Q1018
作品:KWE-009 アポなし访问 麻里梨夏 番号:KWE-009 发行时间:2017年10月27日 播放时间:139分钟 导演:K
SMA-KWE加长弯头批发厂家,广东东莞供应SMA加长型板端射频接头 SMA高频微波连接头 SMA-KWE加长弯头,广东
免费在线阅读国自产拍91视频美国国家飓风中心(NHC)消息,春心难禁33视频更不可以在高速公路上玩耍,国产

随机推荐

网站导航 福利地图